sensor_id;sensor_type;location;lat;lon;timestamp;temperature;humidity
20492;DHT22;10404;51.468;6.762;2024-02-23T00:01:02;7.40;80.80
20492;DHT22;10404;51.468;6.762;2024-02-23T00:03:28;7.30;80.80
20492;DHT22;10404;51.468;6.762;2024-02-23T00:05:53;7.30;81.00
20492;DHT22;10404;51.468;6.762;2024-02-23T00:08:19;7.20;81.10
20492;DHT22;10404;51.468;6.762;2024-02-23T00:10:44;7.20;81.00
20492;DHT22;10404;51.468;6.762;2024-02-23T00:13:10;7.20;81.00
20492;DHT22;10404;51.468;6.762;2024-02-23T00:15:35;7.20;81.20
20492;DHT22;10404;51.468;6.762;2024-02-23T00:18:01;7.10;81.10
20492;DHT22;10404;51.468;6.762;2024-02-23T00:20:29;7.10;81.10
20492;DHT22;10404;51.468;6.762;2024-02-23T00:22:55;7.00;81.20
20492;DHT22;10404;51.468;6.762;2024-02-23T00:25:20;7.00;81.20
20492;DHT22;10404;51.468;6.762;2024-02-23T00:27:46;7.00;81.20
20492;DHT22;10404;51.468;6.762;2024-02-23T00:30:13;7.00;81.10
20492;DHT22;10404;51.468;6.762;2024-02-23T00:32:38;7.00;81.30
20492;DHT22;10404;51.468;6.762;2024-02-23T00:35:04;6.90;81.20
20492;DHT22;10404;51.468;6.762;2024-02-23T00:37:30;6.90;81.30
20492;DHT22;10404;51.468;6.762;2024-02-23T00:40:03;6.90;81.30
20492;DHT22;10404;51.468;6.762;2024-02-23T00:42:32;6.80;81.40
20492;DHT22;10404;51.468;6.762;2024-02-23T00:44:57;6.80;81.40
20492;DHT22;10404;51.468;6.762;2024-02-23T00:47:23;6.80;81.50
20492;DHT22;10404;51.468;6.762;2024-02-23T00:49:48;6.80;81.50
20492;DHT22;10404;51.468;6.762;2024-02-23T00:52:15;6.70;81.50
20492;DHT22;10404;51.468;6.762;2024-02-23T00:54:40;6.70;81.50
20492;DHT22;10404;51.468;6.762;2024-02-23T00:57:06;6.70;81.60
20492;DHT22;10404;51.468;6.762;2024-02-23T00:59:31;6.70;81.50
20492;DHT22;10404;51.468;6.762;2024-02-23T01:01:58;6.70;81.50
20492;DHT22;10404;51.468;6.762;2024-02-23T01:04:23;6.60;81.50
20492;DHT22;10404;51.468;6.762;2024-02-23T01:06:49;6.60;81.50
20492;DHT22;10404;51.468;6.762;2024-02-23T01:09:14;6.60;81.60
20492;DHT22;10404;51.468;6.762;2024-02-23T01:11:42;6.60;81.50
20492;DHT22;10404;51.468;6.762;2024-02-23T01:14:07;6.50;81.50
20492;DHT22;10404;51.468;6.762;2024-02-23T01:16:33;6.50;81.50
20492;DHT22;10404;51.468;6.762;2024-02-23T01:18:59;6.50;81.50
20492;DHT22;10404;51.468;6.762;2024-02-23T01:21:24;6.40;81.50
20492;DHT22;10404;51.468;6.762;2024-02-23T01:23:50;6.40;81.50
20492;DHT22;10404;51.468;6.762;2024-02-23T01:26:15;6.40;81.60
20492;DHT22;10404;51.468;6.762;2024-02-23T01:28:41;6.40;81.70
20492;DHT22;10404;51.468;6.762;2024-02-23T01:31:10;6.40;81.50
20492;DHT22;10404;51.468;6.762;2024-02-23T01:33:37;6.30;81.60
20492;DHT22;10404;51.468;6.762;2024-02-23T01:36:04;6.30;81.50
20492;DHT22;10404;51.468;6.762;2024-02-23T01:38:30;6.30;81.50
20492;DHT22;10404;51.468;6.762;2024-02-23T01:40:58;6.30;81.70
20492;DHT22;10404;51.468;6.762;2024-02-23T01:43:23;6.30;81.60
20492;DHT22;10404;51.468;6.762;2024-02-23T01:45:49;6.30;81.70
20492;DHT22;10404;51.468;6.762;2024-02-23T01:48:15;6.30;81.60
20492;DHT22;10404;51.468;6.762;2024-02-23T01:50:42;6.20;81.50
20492;DHT22;10404;51.468;6.762;2024-02-23T01:53:08;6.20;81.50
20492;DHT22;10404;51.468;6.762;2024-02-23T01:55:36;6.20;81.40
20492;DHT22;10404;51.468;6.762;2024-02-23T01:58:02;6.10;81.50
20492;DHT22;10404;51.468;6.762;2024-02-23T02:00:29;6.10;81.40
20492;DHT22;10404;51.468;6.762;2024-02-23T02:02:55;6.10;81.40
20492;DHT22;10404;51.468;6.762;2024-02-23T02:05:21;6.10;81.40
20492;DHT22;10404;51.468;6.762;2024-02-23T02:07:47;6.10;81.40
20492;DHT22;10404;51.468;6.762;2024-02-23T02:10:16;6.10;81.40
20492;DHT22;10404;51.468;6.762;2024-02-23T02:12:42;6.00;81.40
20492;DHT22;10404;51.468;6.762;2024-02-23T02:15:08;6.00;81.20
20492;DHT22;10404;51.468;6.762;2024-02-23T02:17:34;6.00;81.40
20492;DHT22;10404;51.468;6.762;2024-02-23T02:20:02;6.00;81.30
20492;DHT22;10404;51.468;6.762;2024-02-23T02:22:32;6.00;81.40
20492;DHT22;10404;51.468;6.762;2024-02-23T02:24:58;6.00;81.30
20492;DHT22;10404;51.468;6.762;2024-02-23T02:27:23;5.90;81.30
20492;DHT22;10404;51.468;6.762;2024-02-23T02:29:52;5.90;81.20
20492;DHT22;10404;51.468;6.762;2024-02-23T02:32:18;5.90;81.20
20492;DHT22;10404;51.468;6.762;2024-02-23T02:34:43;5.90;81.20
20492;DHT22;10404;51.468;6.762;2024-02-23T02:37:09;5.90;81.20
20492;DHT22;10404;51.468;6.762;2024-02-23T02:39:34;5.80;81.10
20492;DHT22;10404;51.468;6.762;2024-02-23T02:42:02;5.80;81.30
20492;DHT22;10404;51.468;6.762;2024-02-23T02:44:27;5.80;81.20
20492;DHT22;10404;51.468;6.762;2024-02-23T02:46:56;5.80;81.20
20492;DHT22;10404;51.468;6.762;2024-02-23T02:49:22;5.80;81.20
20492;DHT22;10404;51.468;6.762;2024-02-23T02:51:47;5.80;81.20
20492;DHT22;10404;51.468;6.762;2024-02-23T02:54:13;5.80;81.30
20492;DHT22;10404;51.468;6.762;2024-02-23T02:56:47;5.70;81.20
20492;DHT22;10404;51.468;6.762;2024-02-23T02:59:13;5.70;81.20
20492;DHT22;10404;51.468;6.762;2024-02-23T03:01:39;5.70;81.00
20492;DHT22;10404;51.468;6.762;2024-02-23T03:04:05;5.70;81.10
20492;DHT22;10404;51.468;6.762;2024-02-23T03:06:30;5.70;81.10
20492;DHT22;10404;51.468;6.762;2024-02-23T03:08:56;5.70;81.30
20492;DHT22;10404;51.468;6.762;2024-02-23T03:11:22;5.70;81.20
20492;DHT22;10404;51.468;6.762;2024-02-23T03:13:47;5.60;81.10
20492;DHT22;10404;51.468;6.762;2024-02-23T03:16:20;5.60;81.00
20492;DHT22;10404;51.468;6.762;2024-02-23T03:18:46;5.60;81.20
20492;DHT22;10404;51.468;6.762;2024-02-23T03:21:12;5.60;81.20
20492;DHT22;10404;51.468;6.762;2024-02-23T03:23:39;5.60;81.20
20492;DHT22;10404;51.468;6.762;2024-02-23T03:26:06;5.60;81.10
20492;DHT22;10404;51.468;6.762;2024-02-23T03:28:32;5.50;81.10
20492;DHT22;10404;51.468;6.762;2024-02-23T03:30:59;5.50;81.10
20492;DHT22;10404;51.468;6.762;2024-02-23T03:33:24;5.50;81.10
20492;DHT22;10404;51.468;6.762;2024-02-23T03:35:50;5.50;81.00
20492;DHT22;10404;51.468;6.762;2024-02-23T03:38:15;5.50;81.10
20492;DHT22;10404;51.468;6.762;2024-02-23T03:40:41;5.50;81.10
20492;DHT22;10404;51.468;6.762;2024-02-23T03:43:07;5.50;81.10
20492;DHT22;10404;51.468;6.762;2024-02-23T03:45:33;5.50;81.10
20492;DHT22;10404;51.468;6.762;2024-02-23T03:47:59;5.50;81.00
20492;DHT22;10404;51.468;6.762;2024-02-23T03:50:25;5.50;81.00
20492;DHT22;10404;51.468;6.762;2024-02-23T03:52:50;5.50;81.10
20492;DHT22;10404;51.468;6.762;2024-02-23T03:55:16;5.50;81.10
20492;DHT22;10404;51.468;6.762;2024-02-23T03:57:41;5.40;81.00
20492;DHT22;10404;51.468;6.762;2024-02-23T04:00:07;5.40;80.90
20492;DHT22;10404;51.468;6.762;2024-02-23T04:02:34;5.40;80.90
20492;DHT22;10404;51.468;6.762;2024-02-23T04:05:00;5.30;81.00
20492;DHT22;10404;51.468;6.762;2024-02-23T04:07:25;5.30;81.00
20492;DHT22;10404;51.468;6.762;2024-02-23T04:09:51;5.30;81.00
20492;DHT22;10404;51.468;6.762;2024-02-23T04:12:20;5.30;81.00
20492;DHT22;10404;51.468;6.762;2024-02-23T04:14:46;5.30;81.10
20492;DHT22;10404;51.468;6.762;2024-02-23T04:17:11;5.30;81.00
20492;DHT22;10404;51.468;6.762;2024-02-23T04:19:37;5.30;80.90
20492;DHT22;10404;51.468;6.762;2024-02-23T04:22:05;5.30;80.80
20492;DHT22;10404;51.468;6.762;2024-02-23T04:24:31;5.30;80.90
20492;DHT22;10404;51.468;6.762;2024-02-23T04:26:56;5.30;80.90
20492;DHT22;10404;51.468;6.762;2024-02-23T04:29:22;5.30;80.90
20492;DHT22;10404;51.468;6.762;2024-02-23T04:31:47;5.30;80.90
20492;DHT22;10404;51.468;6.762;2024-02-23T04:34:15;5.30;80.80
20492;DHT22;10404;51.468;6.762;2024-02-23T04:36:41;5.30;80.90
20492;DHT22;10404;51.468;6.762;2024-02-23T04:39:07;5.30;80.90
20492;DHT22;10404;51.468;6.762;2024-02-23T04:41:33;5.30;80.90
20492;DHT22;10404;51.468;6.762;2024-02-23T04:43:59;5.30;81.00
20492;DHT22;10404;51.468;6.762;2024-02-23T04:46:26;5.30;80.90
20492;DHT22;10404;51.468;6.762;2024-02-23T04:48:52;5.30;80.80
20492;DHT22;10404;51.468;6.762;2024-02-23T04:51:17;5.30;80.80
20492;DHT22;10404;51.468;6.762;2024-02-23T04:53:43;5.30;80.80
20492;DHT22;10404;51.468;6.762;2024-02-23T04:56:09;5.30;80.80
20492;DHT22;10404;51.468;6.762;2024-02-23T04:58:35;5.30;80.80
20492;DHT22;10404;51.468;6.762;2024-02-23T05:01:01;5.30;80.80
20492;DHT22;10404;51.468;6.762;2024-02-23T05:03:28;5.30;80.80
20492;DHT22;10404;51.468;6.762;2024-02-23T05:05:54;5.30;80.80
20492;DHT22;10404;51.468;6.762;2024-02-23T05:08:20;5.30;80.70
20492;DHT22;10404;51.468;6.762;2024-02-23T05:10:49;5.30;80.70
20492;DHT22;10404;51.468;6.762;2024-02-23T05:13:15;5.30;80.70
20492;DHT22;10404;51.468;6.762;2024-02-23T05:15:40;5.30;80.70
20492;DHT22;10404;51.468;6.762;2024-02-23T05:18:06;5.30;80.80
20492;DHT22;10404;51.468;6.762;2024-02-23T05:20:32;5.30;80.70
20492;DHT22;10404;51.468;6.762;2024-02-23T05:22:57;5.20;80.80
20492;DHT22;10404;51.468;6.762;2024-02-23T05:25:23;5.30;80.80
20492;DHT22;10404;51.468;6.762;2024-02-23T05:27:48;5.30;80.80
20492;DHT22;10404;51.468;6.762;2024-02-23T05:30:14;5.30;80.80
20492;DHT22;10404;51.468;6.762;2024-02-23T05:32:39;5.30;80.80
20492;DHT22;10404;51.468;6.762;2024-02-23T05:35:06;5.30;80.70
20492;DHT22;10404;51.468;6.762;2024-02-23T05:37:32;5.20;80.80
20492;DHT22;10404;51.468;6.762;2024-02-23T05:39:57;5.30;80.80
20492;DHT22;10404;51.468;6.762;2024-02-23T05:42:25;5.20;80.80
20492;DHT22;10404;51.468;6.762;2024-02-23T05:44:51;5.30;80.70
20492;DHT22;10404;51.468;6.762;2024-02-23T05:47:16;5.20;80.80
20492;DHT22;10404;51.468;6.762;2024-02-23T05:49:42;5.30;80.70
20492;DHT22;10404;51.468;6.762;2024-02-23T05:52:08;5.20;80.80
20492;DHT22;10404;51.468;6.762;2024-02-23T05:54:35;5.20;80.80
20492;DHT22;10404;51.468;6.762;2024-02-23T05:57:01;5.20;80.80
20492;DHT22;10404;51.468;6.762;2024-02-23T05:59:28;5.20;80.70
20492;DHT22;10404;51.468;6.762;2024-02-23T06:01:53;5.20;80.80
20492;DHT22;10404;51.468;6.762;2024-02-23T06:04:24;5.20;80.80
20492;DHT22;10404;51.468;6.762;2024-02-23T06:06:50;5.20;80.80
20492;DHT22;10404;51.468;6.762;2024-02-23T06:09:16;5.20;80.80
20492;DHT22;10404;51.468;6.762;2024-02-23T06:11:41;5.20;80.70
20492;DHT22;10404;51.468;6.762;2024-02-23T06:14:07;5.20;80.80
20492;DHT22;10404;51.468;6.762;2024-02-23T06:16:33;5.10;80.70
20492;DHT22;10404;51.468;6.762;2024-02-23T06:18:59;5.20;80.70
20492;DHT22;10404;51.468;6.762;2024-02-23T06:21:24;5.10;80.80
20492;DHT22;10404;51.468;6.762;2024-02-23T06:23:50;5.20;80.70
20492;DHT22;10404;51.468;6.762;2024-02-23T06:26:16;5.20;80.70
20492;DHT22;10404;51.468;6.762;2024-02-23T06:28:42;5.20;80.80
20492;DHT22;10404;51.468;6.762;2024-02-23T06:31:08;5.10;80.70
20492;DHT22;10404;51.468;6.762;2024-02-23T06:33:34;5.10;80.80
20492;DHT22;10404;51.468;6.762;2024-02-23T06:36:00;5.10;80.70
20492;DHT22;10404;51.468;6.762;2024-02-23T06:38:26;5.10;80.70
20492;DHT22;10404;51.468;6.762;2024-02-23T06:40:52;5.10;80.70
20492;DHT22;10404;51.468;6.762;2024-02-23T06:43:18;5.10;80.70
20492;DHT22;10404;51.468;6.762;2024-02-23T06:45:44;5.10;80.70
20492;DHT22;10404;51.468;6.762;2024-02-23T06:48:09;5.10;80.70
20492;DHT22;10404;51.468;6.762;2024-02-23T06:50:35;5.10;80.60
20492;DHT22;10404;51.468;6.762;2024-02-23T06:53:01;5.10;80.70
20492;DHT22;10404;51.468;6.762;2024-02-23T06:55:27;5.10;80.70
20492;DHT22;10404;51.468;6.762;2024-02-23T06:57:54;5.10;80.60
20492;DHT22;10404;51.468;6.762;2024-02-23T07:00:23;5.10;80.50
20492;DHT22;10404;51.468;6.762;2024-02-23T07:02:48;5.10;80.50
20492;DHT22;10404;51.468;6.762;2024-02-23T07:05:14;5.10;80.50
20492;DHT22;10404;51.468;6.762;2024-02-23T07:07:40;5.10;80.50
20492;DHT22;10404;51.468;6.762;2024-02-23T07:10:07;5.10;80.50
20492;DHT22;10404;51.468;6.762;2024-02-23T07:12:33;5.10;80.50
20492;DHT22;10404;51.468;6.762;2024-02-23T07:14:59;5.10;80.50
20492;DHT22;10404;51.468;6.762;2024-02-23T07:17:24;5.10;80.50
20492;DHT22;10404;51.468;6.762;2024-02-23T07:19:50;5.10;80.40
20492;DHT22;10404;51.468;6.762;2024-02-23T07:22:17;5.10;80.50
20492;DHT22;10404;51.468;6.762;2024-02-23T07:24:46;5.10;80.40
20492;DHT22;10404;51.468;6.762;2024-02-23T07:27:12;5.10;80.40
20492;DHT22;10404;51.468;6.762;2024-02-23T07:29:37;5.10;80.40
20492;DHT22;10404;51.468;6.762;2024-02-23T07:32:03;5.10;80.30
20492;DHT22;10404;51.468;6.762;2024-02-23T07:34:30;5.10;80.30
20492;DHT22;10404;51.468;6.762;2024-02-23T07:36:56;5.10;80.30
20492;DHT22;10404;51.468;6.762;2024-02-23T07:39:21;5.10;80.30
20492;DHT22;10404;51.468;6.762;2024-02-23T07:41:47;5.10;80.30
20492;DHT22;10404;51.468;6.762;2024-02-23T07:44:13;5.10;80.30
20492;DHT22;10404;51.468;6.762;2024-02-23T07:46:38;5.10;80.30
20492;DHT22;10404;51.468;6.762;2024-02-23T07:49:04;5.10;80.30
20492;DHT22;10404;51.468;6.762;2024-02-23T07:51:32;5.10;80.30
20492;DHT22;10404;51.468;6.762;2024-02-23T07:53:57;5.10;80.20
20492;DHT22;10404;51.468;6.762;2024-02-23T07:56:23;5.20;80.10
20492;DHT22;10404;51.468;6.762;2024-02-23T07:58:48;5.30;80.10
20492;DHT22;10404;51.468;6.762;2024-02-23T08:01:14;5.30;80.00
20492;DHT22;10404;51.468;6.762;2024-02-23T08:03:40;5.30;80.00
20492;DHT22;10404;51.468;6.762;2024-02-23T08:06:06;5.30;79.90
20492;DHT22;10404;51.468;6.762;2024-02-23T08:08:32;5.30;79.70
20492;DHT22;10404;51.468;6.762;2024-02-23T08:11:02;5.30;79.40
20492;DHT22;10404;51.468;6.762;2024-02-23T08:13:28;5.50;79.20
20492;DHT22;10404;51.468;6.762;2024-02-23T08:15:53;5.50;78.80
20492;DHT22;10404;51.468;6.762;2024-02-23T08:18:19;5.60;78.50
20492;DHT22;10404;51.468;6.762;2024-02-23T08:20:44;5.60;78.40
20492;DHT22;10404;51.468;6.762;2024-02-23T08:23:10;5.60;78.50
20492;DHT22;10404;51.468;6.762;2024-02-23T08:25:36;5.70;78.30
20492;DHT22;10404;51.468;6.762;2024-02-23T08:28:02;5.80;77.90
20492;DHT22;10404;51.468;6.762;2024-02-23T08:30:28;5.90;77.70
20492;DHT22;10404;51.468;6.762;2024-02-23T08:32:53;6.00;77.30
20492;DHT22;10404;51.468;6.762;2024-02-23T08:35:19;6.10;76.70
20492;DHT22;10404;51.468;6.762;2024-02-23T08:37:45;6.20;76.50
20492;DHT22;10404;51.468;6.762;2024-02-23T08:40:11;6.40;76.50
20492;DHT22;10404;51.468;6.762;2024-02-23T08:42:37;6.40;76.20
20492;DHT22;10404;51.468;6.762;2024-02-23T08:45:03;6.50;75.60
20492;DHT22;10404;51.468;6.762;2024-02-23T08:47:29;6.60;75.80
20492;DHT22;10404;51.468;6.762;2024-02-23T08:49:58;6.60;75.50
20492;DHT22;10404;51.468;6.762;2024-02-23T08:52:23;6.70;74.90
20492;DHT22;10404;51.468;6.762;2024-02-23T08:54:49;6.60;75.10
20492;DHT22;10404;51.468;6.762;2024-02-23T08:57:14;6.60;75.40
20492;DHT22;10404;51.468;6.762;2024-02-23T08:59:45;6.60;75.40
20492;DHT22;10404;51.468;6.762;2024-02-23T09:02:10;6.70;75.30
20492;DHT22;10404;51.468;6.762;2024-02-23T09:04:36;6.80;75.10
20492;DHT22;10404;51.468;6.762;2024-02-23T09:07:02;6.90;74.60
20492;DHT22;10404;51.468;6.762;2024-02-23T09:09:27;6.90;74.40
20492;DHT22;10404;51.468;6.762;2024-02-23T09:11:53;6.90;74.40
20492;DHT22;10404;51.468;6.762;2024-02-23T09:14:18;6.90;74.60
20492;DHT22;10404;51.468;6.762;2024-02-23T09:16:44;7.00;74.50
20492;DHT22;10404;51.468;6.762;2024-02-23T09:19:11;7.10;74.60
20492;DHT22;10404;51.468;6.762;2024-02-23T09:21:37;7.10;74.50
20492;DHT22;10404;51.468;6.762;2024-02-23T09:24:04;7.00;74.60
20492;DHT22;10404;51.468;6.762;2024-02-23T09:26:29;7.00;74.60
20492;DHT22;10404;51.468;6.762;2024-02-23T09:28:55;7.00;74.70
20492;DHT22;10404;51.468;6.762;2024-02-23T09:31:21;7.00;74.80
20492;DHT22;10404;51.468;6.762;2024-02-23T09:33:46;7.00;74.60
20492;DHT22;10404;51.468;6.762;2024-02-23T09:36:14;7.00;75.00
20492;DHT22;10404;51.468;6.762;2024-02-23T09:38:39;7.00;75.20
20492;DHT22;10404;51.468;6.762;2024-02-23T09:41:11;7.00;75.40
20492;DHT22;10404;51.468;6.762;2024-02-23T09:43:42;6.90;75.60
20492;DHT22;10404;51.468;6.762;2024-02-23T09:46:09;6.90;75.60
20492;DHT22;10404;51.468;6.762;2024-02-23T09:48:34;6.90;75.90
20492;DHT22;10404;51.468;6.762;2024-02-23T09:51:01;6.90;76.00
20492;DHT22;10404;51.468;6.762;2024-02-23T09:53:26;6.90;76.00
20492;DHT22;10404;51.468;6.762;2024-02-23T09:55:53;6.90;76.00
20492;DHT22;10404;51.468;6.762;2024-02-23T09:58:20;6.90;76.10
20492;DHT22;10404;51.468;6.762;2024-02-23T10:00:47;6.90;76.10
20492;DHT22;10404;51.468;6.762;2024-02-23T10:03:12;6.90;76.10
20492;DHT22;10404;51.468;6.762;2024-02-23T10:05:38;6.90;76.00
20492;DHT22;10404;51.468;6.762;2024-02-23T10:08:04;6.90;76.10
20492;DHT22;10404;51.468;6.762;2024-02-23T10:10:32;6.90;76.20
20492;DHT22;10404;51.468;6.762;2024-02-23T10:12:58;6.90;76.10
20492;DHT22;10404;51.468;6.762;2024-02-23T10:15:24;7.00;76.10
20492;DHT22;10404;51.468;6.762;2024-02-23T10:17:51;7.00;76.10
20492;DHT22;10404;51.468;6.762;2024-02-23T10:20:16;7.00;76.00
20492;DHT22;10404;51.468;6.762;2024-02-23T10:22:42;7.00;75.90
20492;DHT22;10404;51.468;6.762;2024-02-23T10:25:09;7.00;75.90
20492;DHT22;10404;51.468;6.762;2024-02-23T10:27:35;7.00;76.00
20492;DHT22;10404;51.468;6.762;2024-02-23T10:30:00;7.00;76.00
20492;DHT22;10404;51.468;6.762;2024-02-23T10:32:29;7.00;75.90
20492;DHT22;10404;51.468;6.762;2024-02-23T10:35:00;7.00;75.90
20492;DHT22;10404;51.468;6.762;2024-02-23T10:37:26;7.10;75.90
20492;DHT22;10404;51.468;6.762;2024-02-23T10:39:57;7.00;75.80
20492;DHT22;10404;51.468;6.762;2024-02-23T10:42:24;7.10;75.70
20492;DHT22;10404;51.468;6.762;2024-02-23T10:44:53;7.10;75.70
20492;DHT22;10404;51.468;6.762;2024-02-23T10:47:21;7.20;75.70
20492;DHT22;10404;51.468;6.762;2024-02-23T10:49:47;7.20;75.70
20492;DHT22;10404;51.468;6.762;2024-02-23T10:52:13;7.20;75.70
20492;DHT22;10404;51.468;6.762;2024-02-23T10:54:40;7.20;75.70
20492;DHT22;10404;51.468;6.762;2024-02-23T10:57:07;7.20;75.40
20492;DHT22;10404;51.468;6.762;2024-02-23T10:59:33;7.20;75.70
20492;DHT22;10404;51.468;6.762;2024-02-23T11:01:59;7.20;75.50
20492;DHT22;10404;51.468;6.762;2024-02-23T11:04:26;7.20;75.30
20492;DHT22;10404;51.468;6.762;2024-02-23T11:06:54;7.20;75.20
20492;DHT22;10404;51.468;6.762;2024-02-23T11:09:22;7.20;75.20
20492;DHT22;10404;51.468;6.762;2024-02-23T11:11:55;7.20;75.20
20492;DHT22;10404;51.468;6.762;2024-02-23T11:16:58;7.20;75.00
20492;DHT22;10404;51.468;6.762;2024-02-23T11:19:32;7.20;75.10
20492;DHT22;10404;51.468;6.762;2024-02-23T11:21:59;7.20;74.90
20492;DHT22;10404;51.468;6.762;2024-02-23T11:24:28;7.20;74.90
20492;DHT22;10404;51.468;6.762;2024-02-23T11:27:00;7.20;75.00
20492;DHT22;10404;51.468;6.762;2024-02-23T11:29:33;7.20;74.60
20492;DHT22;10404;51.468;6.762;2024-02-23T11:32:00;7.30;74.60
20492;DHT22;10404;51.468;6.762;2024-02-23T11:34:30;7.30;74.60
20492;DHT22;10404;51.468;6.762;2024-02-23T11:36:56;7.30;74.70
20492;DHT22;10404;51.468;6.762;2024-02-23T11:39:23;7.30;74.70
20492;DHT22;10404;51.468;6.762;2024-02-23T11:41:49;7.30;74.60
20492;DHT22;10404;51.468;6.762;2024-02-23T11:44:15;7.30;74.50
20492;DHT22;10404;51.468;6.762;2024-02-23T11:46:43;7.30;74.60
20492;DHT22;10404;51.468;6.762;2024-02-23T11:49:09;7.40;74.40
20492;DHT22;10404;51.468;6.762;2024-02-23T11:51:35;7.40;74.30
20492;DHT22;10404;51.468;6.762;2024-02-23T11:54:01;7.40;74.60
20492;DHT22;10404;51.468;6.762;2024-02-23T11:56:27;7.40;74.50
20492;DHT22;10404;51.468;6.762;2024-02-23T11:58:54;7.40;74.70
20492;DHT22;10404;51.468;6.762;2024-02-23T12:01:20;7.40;74.50
20492;DHT22;10404;51.468;6.762;2024-02-23T12:03:46;7.40;74.20
20492;DHT22;10404;51.468;6.762;2024-02-23T12:06:14;7.40;74.50
20492;DHT22;10404;51.468;6.762;2024-02-23T12:08:41;7.40;74.50
20492;DHT22;10404;51.468;6.762;2024-02-23T12:11:08;7.40;74.40
20492;DHT22;10404;51.468;6.762;2024-02-23T12:13:35;7.40;74.00
20492;DHT22;10404;51.468;6.762;2024-02-23T12:16:01;7.40;74.30
20492;DHT22;10404;51.468;6.762;2024-02-23T12:18:27;7.40;74.20
20492;DHT22;10404;51.468;6.762;2024-02-23T12:20:59;7.40;73.80
20492;DHT22;10404;51.468;6.762;2024-02-23T12:23:26;7.50;74.00
20492;DHT22;10404;51.468;6.762;2024-02-23T12:25:53;7.50;74.20
20492;DHT22;10404;51.468;6.762;2024-02-23T12:28:20;7.50;74.20
20492;DHT22;10404;51.468;6.762;2024-02-23T12:30:45;7.50;74.10
20492;DHT22;10404;51.468;6.762;2024-02-23T12:33:15;7.50;73.90
20492;DHT22;10404;51.468;6.762;2024-02-23T12:35:41;7.50;74.10
20492;DHT22;10404;51.468;6.762;2024-02-23T12:38:06;7.50;74.20
20492;DHT22;10404;51.468;6.762;2024-02-23T12:40:32;7.50;73.80
20492;DHT22;10404;51.468;6.762;2024-02-23T12:42:57;7.50;73.70
20492;DHT22;10404;51.468;6.762;2024-02-23T12:45:23;7.50;73.70
20492;DHT22;10404;51.468;6.762;2024-02-23T12:47:48;7.50;73.70
20492;DHT22;10404;51.468;6.762;2024-02-23T12:50:14;7.50;73.70
20492;DHT22;10404;51.468;6.762;2024-02-23T12:52:40;7.60;74.00
20492;DHT22;10404;51.468;6.762;2024-02-23T12:55:06;7.60;73.50
20492;DHT22;10404;51.468;6.762;2024-02-23T12:57:31;7.60;73.70
20492;DHT22;10404;51.468;6.762;2024-02-23T12:59:57;7.60;73.70
20492;DHT22;10404;51.468;6.762;2024-02-23T13:02:23;7.60;73.20
20492;DHT22;10404;51.468;6.762;2024-02-23T13:04:48;7.60;73.40
20492;DHT22;10404;51.468;6.762;2024-02-23T13:07:17;7.60;73.00
20492;DHT22;10404;51.468;6.762;2024-02-23T13:09:43;7.60;73.00
20492;DHT22;10404;51.468;6.762;2024-02-23T13:12:09;7.60;73.20
20492;DHT22;10404;51.468;6.762;2024-02-23T13:14:35;7.70;73.50
20492;DHT22;10404;51.468;6.762;2024-02-23T13:17:00;7.70;73.10
20492;DHT22;10404;51.468;6.762;2024-02-23T13:19:26;7.70;73.20
20492;DHT22;10404;51.468;6.762;2024-02-23T13:21:52;7.70;73.40
20492;DHT22;10404;51.468;6.762;2024-02-23T13:24:18;7.80;73.00
20492;DHT22;10404;51.468;6.762;2024-02-23T13:26:44;7.80;73.10
20492;DHT22;10404;51.468;6.762;2024-02-23T13:29:09;7.80;72.60
20492;DHT22;10404;51.468;6.762;2024-02-23T13:31:35;7.80;72.90
20492;DHT22;10404;51.468;6.762;2024-02-23T13:34:00;7.80;73.00
20492;DHT22;10404;51.468;6.762;2024-02-23T13:36:26;7.80;73.10
20492;DHT22;10404;51.468;6.762;2024-02-23T13:38:52;7.80;72.90
20492;DHT22;10404;51.468;6.762;2024-02-23T13:41:18;7.90;73.20
20492;DHT22;10404;51.468;6.762;2024-02-23T13:43:43;7.90;72.80
20492;DHT22;10404;51.468;6.762;2024-02-23T13:46:09;7.90;72.50
20492;DHT22;10404;51.468;6.762;2024-02-23T13:48:36;7.90;72.90
20492;DHT22;10404;51.468;6.762;2024-02-23T13:51:01;7.90;72.60
20492;DHT22;10404;51.468;6.762;2024-02-23T13:53:29;7.90;72.70
20492;DHT22;10404;51.468;6.762;2024-02-23T13:55:56;7.90;73.00
20492;DHT22;10404;51.468;6.762;2024-02-23T13:58:21;8.00;72.50
20492;DHT22;10404;51.468;6.762;2024-02-23T14:00:47;8.00;72.50
20492;DHT22;10404;51.468;6.762;2024-02-23T14:03:17;8.00;72.80
20492;DHT22;10404;51.468;6.762;2024-02-23T14:05:46;8.00;72.20
20492;DHT22;10404;51.468;6.762;2024-02-23T14:08:13;8.00;72.20
20492;DHT22;10404;51.468;6.762;2024-02-23T14:10:38;8.00;72.20
20492;DHT22;10404;51.468;6.762;2024-02-23T14:13:05;8.00;70.00
20492;DHT22;10404;51.468;6.762;2024-02-23T14:15:31;8.00;68.70
20492;DHT22;10404;51.468;6.762;2024-02-23T14:17:56;8.10;67.80
20492;DHT22;10404;51.468;6.762;2024-02-23T14:20:22;8.10;69.10
20492;DHT22;10404;51.468;6.762;2024-02-23T14:22:47;8.10;70.50
20492;DHT22;10404;51.468;6.762;2024-02-23T14:25:15;8.10;70.10
20492;DHT22;10404;51.468;6.762;2024-02-23T14:27:41;8.10;70.60
20492;DHT22;10404;51.468;6.762;2024-02-23T14:30:07;8.10;71.50
20492;DHT22;10404;51.468;6.762;2024-02-23T14:32:33;8.10;71.40
20492;DHT22;10404;51.468;6.762;2024-02-23T14:35:01;8.10;70.80
20492;DHT22;10404;51.468;6.762;2024-02-23T14:37:28;8.10;71.10
20492;DHT22;10404;51.468;6.762;2024-02-23T14:39:54;8.10;71.10
20492;DHT22;10404;51.468;6.762;2024-02-23T14:42:19;8.10;71.50
20492;DHT22;10404;51.468;6.762;2024-02-23T14:44:45;8.20;71.00
20492;DHT22;10404;51.468;6.762;2024-02-23T14:47:11;8.20;70.80
20492;DHT22;10404;51.468;6.762;2024-02-23T14:49:38;8.20;70.80
20492;DHT22;10404;51.468;6.762;2024-02-23T14:52:06;8.20;71.00
20492;DHT22;10404;51.468;6.762;2024-02-23T14:54:32;8.20;70.90
20492;DHT22;10404;51.468;6.762;2024-02-23T14:56:59;8.30;71.00
20492;DHT22;10404;51.468;6.762;2024-02-23T14:59:24;8.30;70.90
20492;DHT22;10404;51.468;6.762;2024-02-23T15:01:50;8.30;70.70
20492;DHT22;10404;51.468;6.762;2024-02-23T15:04:15;8.30;71.30
20492;DHT22;10404;51.468;6.762;2024-02-23T15:06:41;8.30;71.60
20492;DHT22;10404;51.468;6.762;2024-02-23T15:09:07;8.30;72.00
20492;DHT22;10404;51.468;6.762;2024-02-23T15:11:32;8.30;71.90
20492;DHT22;10404;51.468;6.762;2024-02-23T15:13:58;8.30;72.00
20492;DHT22;10404;51.468;6.762;2024-02-23T15:16:26;8.30;72.10
20492;DHT22;10404;51.468;6.762;2024-02-23T15:18:52;8.30;71.40
20492;DHT22;10404;51.468;6.762;2024-02-23T15:21:18;8.30;72.30
20492;DHT22;10404;51.468;6.762;2024-02-23T15:23:43;8.40;71.90
20492;DHT22;10404;51.468;6.762;2024-02-23T15:26:10;8.40;72.10
20492;DHT22;10404;51.468;6.762;2024-02-23T15:28:36;8.30;72.20
20492;DHT22;10404;51.468;6.762;2024-02-23T15:31:01;8.40;73.00
20492;DHT22;10404;51.468;6.762;2024-02-23T15:33:28;8.30;72.80
20492;DHT22;10404;51.468;6.762;2024-02-23T15:35:54;8.30;72.50
20492;DHT22;10404;51.468;6.762;2024-02-23T15:38:20;8.30;73.00
20492;DHT22;10404;51.468;6.762;2024-02-23T15:40:46;8.40;72.40